Colebrook, Connecticut
Current Conditions -  °F | °C
As of 6:09 PM on Wednesday 17 Dec 2014 (Local Time) from KBDL Reporting Station
Broken Clouds Broken Clouds  
Wind Chill: 40°   Ceiling: 4000
Heat Index: 45°   Visibility: 10mi
Dew Point: 35°   Wind: 9mph
Humidity: 68%   Direction: 320°NW
Pressure: 29.8"   Gusts: 20mph
Location:  41.99°N, 73.1°W
Report Text: KBDL 172309Z 32008G17KT 10SM SCT023 BKN040 BKN070 07/02 A2980 RMK AO2 T00720017
Loading
Personal Weather Stations






























Interactive Weather Map New forecast layout! Learn more

10-Day Weather Forecast

Advertisements
Track Severe Weather on mobile